createdAt,value
2022-10-05T00:00:01.753Z,98.03
2022-10-05T00:05:01.383Z,97.96
2022-10-05T00:10:01.367Z,98.42
2022-10-05T00:15:01.345Z,97.86
2022-10-05T00:20:02.224Z,98.53
2022-10-05T00:25:02.287Z,98.25
2022-10-05T00:30:01.727Z,96.49
2022-10-05T00:35:02.257Z,96.65
2022-10-05T00:40:02.240Z,96.45
2022-10-05T00:45:01.328Z,98.74
2022-10-05T00:50:01.543Z,98.7
2022-10-05T00:55:02.012Z,96.25
2022-10-05T01:00:02.073Z,98.4
2022-10-05T01:05:01.731Z,98.57
2022-10-05T01:10:01.748Z,98.84
2022-10-05T01:15:01.609Z,98.95
2022-10-05T01:20:01.437Z,98.98
2022-10-05T01:25:01.721Z,99.1
2022-10-05T01:30:01.487Z,99.48
2022-10-05T01:35:01.283Z,99.96
2022-10-05T01:40:02.228Z,98.23
2022-10-05T01:45:02.277Z,100
2022-10-05T01:50:01.699Z,97.73
2022-10-05T01:55:02.122Z,99.65
2022-10-05T02:00:01.591Z,99.45
2022-10-05T02:05:02.885Z,99.55
2022-10-05T02:10:01.855Z,99.58
2022-10-05T02:15:01.319Z,99.77
2022-10-05T02:20:02.257Z,99.81
2022-10-05T02:25:01.808Z,99.72
2022-10-05T02:30:01.815Z,99.7
2022-10-05T02:35:01.420Z,99.63
2022-10-05T02:40:01.974Z,99.68
2022-10-05T02:45:01.786Z,99.59
2022-10-05T02:50:01.739Z,99.7
2022-10-05T02:55:01.331Z,99.65
2022-10-05T03:00:02.054Z,99.6
2022-10-05T03:05:01.627Z,99.51
2022-10-05T03:10:01.896Z,99.18
2022-10-05T03:15:01.852Z,99.07
2022-10-05T03:20:02.154Z,97.12
2022-10-05T03:25:02.074Z,97.14
2022-10-05T03:30:02.058Z,96.99
2022-10-05T03:35:01.277Z,96.81
2022-10-05T03:40:01.387Z,96.68
2022-10-05T03:45:01.878Z,96.47
2022-10-05T03:50:02.133Z,98.85
2022-10-05T03:55:01.842Z,98.92
2022-10-05T04:00:01.894Z,97.98
2022-10-05T04:05:02.151Z,98.47
2022-10-05T04:10:02.159Z,95.8
2022-10-05T04:15:02.107Z,98.15
2022-10-05T04:20:01.982Z,98.18
2022-10-05T04:25:01.338Z,95.53
2022-10-05T04:30:01.392Z,98.18
2022-10-05T04:35:01.443Z,98.11
2022-10-05T04:40:01.269Z,97.6
2022-10-05T04:45:01.345Z,98.15
2022-10-05T04:50:02.088Z,95.25
2022-10-05T04:55:01.778Z,98.07
2022-10-05T05:00:01.912Z,95.33
2022-10-05T05:05:01.620Z,98.09
2022-10-05T05:10:01.881Z,97.05
2022-10-05T05:15:01.978Z,95.41
2022-10-05T05:20:02.078Z,95.7
2022-10-05T05:25:01.763Z,97.57
2022-10-05T05:30:01.285Z,98.66
2022-10-05T05:35:01.574Z,96.57
2022-10-05T05:40:02.162Z,96.86
2022-10-05T05:45:02.213Z,97.18
2022-10-05T05:50:07.010Z,97.27
2022-10-05T05:55:01.719Z,97.31
2022-10-05T06:00:01.941Z,97.19
2022-10-05T06:05:01.981Z,97.14
2022-10-05T06:10:01.343Z,98.76
2022-10-05T06:15:01.344Z,98.5
2022-10-05T06:20:05.265Z,98.17
2022-10-05T06:25:02.102Z,98.15
2022-10-05T06:30:02.264Z,98.6
2022-10-05T06:35:01.294Z,97.82
2022-10-05T06:40:02.190Z,98.47
2022-10-05T06:45:01.949Z,97.83
2022-10-05T06:50:01.714Z,98.48
2022-10-05T06:55:02.060Z,96.24
2022-10-05T07:00:02.126Z,98.6
2022-10-05T07:05:01.630Z,96.09
2022-10-05T07:10:01.701Z,98.26
2022-10-05T07:15:01.608Z,96.01
2022-10-05T07:20:01.279Z,98.16
2022-10-05T07:25:01.450Z,98.37
2022-10-05T07:30:02.013Z,95.76
2022-10-05T07:35:01.253Z,98.39
2022-10-05T07:40:01.747Z,98.23
2022-10-05T07:45:01.790Z,97.94
2022-10-05T07:50:01.672Z,97.96
2022-10-05T07:55:01.466Z,97.46
2022-10-05T08:00:01.418Z,96.94
2022-10-05T08:05:01.917Z,96.57
2022-10-05T08:10:02.461Z,96.39
2022-10-05T08:15:01.743Z,96.42
2022-10-05T08:20:02.219Z,96.05
2022-10-05T08:25:01.887Z,95.85
2022-10-05T08:30:02.183Z,95.99
2022-10-05T08:35:01.569Z,95.57
2022-10-05T08:40:02.207Z,95.3
2022-10-05T08:45:01.767Z,94.73
2022-10-05T08:50:01.495Z,94.25
2022-10-05T08:55:01.613Z,93.83
2022-10-05T09:00:02.169Z,93.75
2022-10-05T09:05:01.663Z,92.58
2022-10-05T09:10:02.057Z,91.99
2022-10-05T09:15:24.343Z,91.36
2022-10-05T09:20:01.975Z,90.99
2022-10-05T09:25:01.295Z,89.74
2022-10-05T09:30:01.959Z,89.13
2022-10-05T09:35:01.740Z,87.99
2022-10-05T09:40:01.671Z,88.05
2022-10-05T09:45:01.938Z,84.81
2022-10-05T09:50:01.591Z,82.85
2022-10-05T09:55:01.400Z,82.16
2022-10-05T10:00:01.915Z,80.4
2022-10-05T10:05:01.337Z,81.6
2022-10-05T10:10:02.041Z,80.15
2022-10-05T10:15:03.003Z,80.86
2022-10-05T10:20:01.830Z,81.95
2022-10-05T10:25:01.264Z,79.94
2022-10-05T11:10:02.085Z,76.97
2022-10-05T11:15:01.566Z,77.26
2022-10-05T11:20:05.086Z,79.38
2022-10-05T11:25:01.510Z,77.22
2022-10-05T11:30:01.562Z,75.23
2022-10-05T11:35:01.766Z,77.51
2022-10-05T11:40:01.755Z,77.42
2022-10-05T11:45:02.105Z,75.7
2022-10-05T11:50:01.981Z,75.92
2022-10-05T11:55:11.465Z,76.27
2022-10-05T12:00:01.389Z,75.17
2022-10-05T12:05:01.959Z,75.49
2022-10-05T12:10:01.767Z,76.15
2022-10-05T12:15:01.709Z,75.74
2022-10-05T12:20:01.554Z,76.8
2022-10-05T12:25:01.892Z,76.15
2022-10-05T12:30:01.369Z,76.9
2022-10-05T12:35:02.234Z,77.97
2022-10-05T12:40:01.914Z,79.12
2022-10-05T12:45:01.507Z,77.35
2022-10-05T12:50:02.242Z,78.18
2022-10-05T12:55:01.512Z,77.18
2022-10-05T13:00:02.082Z,77.58
2022-10-05T13:05:01.879Z,77.95
2022-10-05T13:10:02.225Z,77.55
2022-10-05T13:15:01.963Z,78.6
2022-10-05T13:20:01.648Z,78.9
2022-10-05T13:25:01.710Z,78.8
2022-10-05T13:30:01.779Z,78.48
2022-10-05T13:35:01.878Z,78.45
2022-10-05T13:40:01.475Z,78.48
2022-10-05T13:45:01.725Z,78.18
2022-10-05T13:50:02.077Z,78.22
2022-10-05T13:55:01.380Z,77.42
2022-10-05T14:00:01.604Z,77.79
2022-10-05T14:05:02.081Z,77.61
2022-10-05T14:10:01.357Z,77.71
2022-10-05T14:15:01.900Z,79.38
2022-10-05T14:20:01.460Z,78.21
2022-10-05T14:25:01.753Z,77.98
2022-10-05T14:30:01.316Z,77.48
2022-10-05T14:35:02.093Z,77.39
2022-10-05T14:40:01.312Z,77.82
2022-10-05T14:45:01.944Z,78.61
2022-10-05T14:50:02.035Z,80.24
2022-10-05T14:55:01.362Z,80.28
2022-10-05T15:00:01.768Z,82.01
2022-10-05T15:05:01.420Z,81.63
2022-10-05T15:10:01.606Z,82.73
2022-10-05T15:15:01.895Z,83.34
2022-10-05T15:20:02.181Z,83.37
2022-10-05T15:25:02.111Z,83.44
2022-10-05T15:30:01.517Z,84.8
2022-10-05T15:35:02.160Z,84.97
2022-10-05T15:40:01.954Z,85.62
2022-10-05T15:45:01.407Z,86.52
2022-10-05T15:50:01.929Z,87.27
2022-10-05T15:55:02.076Z,86.59
2022-10-05T16:00:01.640Z,87.43
2022-10-05T16:05:04.777Z,88.51
2022-10-05T16:10:01.499Z,88.19
2022-10-05T16:15:01.918Z,88.92
2022-10-05T16:20:01.765Z,89.06
2022-10-05T16:25:01.805Z,89.39
2022-10-05T16:30:01.613Z,89.45
2022-10-05T16:35:01.471Z,89.47
2022-10-05T16:40:01.685Z,88.42
2022-10-05T16:45:01.888Z,87.72
2022-10-05T16:50:01.873Z,86.96
2022-10-05T16:55:01.483Z,86.18
2022-10-05T17:00:02.055Z,85.65
2022-10-05T17:05:01.955Z,85.24
2022-10-05T17:10:01.717Z,84.82
2022-10-05T17:15:02.115Z,84.74
2022-10-05T17:20:02.392Z,84.76
2022-10-05T17:25:01.865Z,84.84
2022-10-05T17:30:01.544Z,84.53
2022-10-05T17:35:01.743Z,85.2
2022-10-05T17:40:01.528Z,86.56
2022-10-05T17:45:02.074Z,88.19
2022-10-05T17:50:01.740Z,89.29
2022-10-05T17:55:01.518Z,90.1
2022-10-05T18:00:02.080Z,90.39
2022-10-05T18:05:02.211Z,90.74
2022-10-05T18:10:02.257Z,90.63
2022-10-05T18:15:01.414Z,90.61
2022-10-05T18:20:02.133Z,91.28
2022-10-05T18:25:02.068Z,91.74
2022-10-05T18:30:01.954Z,91.6
2022-10-05T18:35:02.247Z,91.9
2022-10-05T18:40:01.902Z,92.16
2022-10-05T18:45:02.037Z,92.16
2022-10-05T18:50:01.999Z,92.89
2022-10-05T18:55:02.010Z,92.6
2022-10-05T19:00:02.141Z,92.99
2022-10-05T19:05:02.178Z,93.59
2022-10-05T19:10:01.963Z,92.22
2022-10-05T19:15:01.850Z,91.1
2022-10-05T19:20:02.052Z,90.86
2022-10-05T19:25:02.221Z,89.79
2022-10-05T19:30:01.729Z,89.71
2022-10-05T19:35:02.345Z,90.67
2022-10-05T19:40:04.506Z,90.89
2022-10-05T19:45:01.426Z,90.76
2022-10-05T19:50:02.239Z,90.79
2022-10-05T19:55:02.068Z,88.97
2022-10-05T20:00:02.350Z,89.1
2022-10-05T20:05:02.285Z,89.54
2022-10-05T20:10:01.690Z,89.91
2022-10-05T20:15:01.980Z,90.13
2022-10-05T20:20:01.934Z,90.18
2022-10-05T20:25:01.892Z,90.09
2022-10-05T20:30:01.580Z,90.58
2022-10-05T20:35:01.685Z,90.71
2022-10-05T20:40:01.851Z,90.41
2022-10-05T20:45:02.187Z,90.04
2022-10-05T20:50:01.801Z,89.78
2022-10-05T20:55:01.285Z,90.07
2022-10-05T21:00:02.078Z,89.54
2022-10-05T21:05:02.232Z,88.96
2022-10-05T21:10:01.349Z,89.66
2022-10-05T21:15:02.223Z,89.72
2022-10-05T21:20:02.155Z,89.77
2022-10-05T21:25:01.571Z,90.04
2022-10-05T21:30:02.296Z,90.32
2022-10-05T21:35:01.948Z,90.46
2022-10-05T21:40:01.572Z,90.87
2022-10-05T21:45:01.635Z,90.93
2022-10-05T21:50:01.618Z,91.17
2022-10-05T21:55:02.291Z,90.6
2022-10-05T22:00:02.180Z,90.93
2022-10-05T22:05:01.633Z,90.65
2022-10-05T22:10:01.570Z,90.44
2022-10-05T22:15:01.333Z,90.35
2022-10-05T22:20:01.729Z,90.94
2022-10-05T22:25:01.694Z,92.12
2022-10-05T22:30:01.690Z,92.19
2022-10-05T22:35:01.610Z,91.89
2022-10-05T22:40:02.107Z,91.75
2022-10-05T22:45:02.123Z,90.89
2022-10-05T22:50:01.875Z,90.38
2022-10-05T22:55:01.604Z,90.86
2022-10-05T23:00:02.256Z,88.54
2022-10-05T23:05:01.365Z,89.68
2022-10-05T23:10:02.270Z,89.68
2022-10-05T23:15:02.521Z,91
2022-10-05T23:20:01.955Z,91.3
2022-10-05T23:25:02.037Z,91.74
2022-10-05T23:30:02.012Z,92.15
2022-10-05T23:35:02.118Z,92.3
2022-10-05T23:40:01.956Z,92.32
2022-10-05T23:45:01.443Z,92.35
2022-10-05T23:50:02.251Z,92
2022-10-05T23:55:01.641Z,91.92
